メインページ
METAR-TAF:

METAR-TAF

空港 :

バーレーン国際空港

バーレーン, バーレーン

緯度: 26-16N, 経度: 050-39E, 海抜: 2m

現時点の気象観測

当レポートは28分前の10:00(UTC)に作成
北/北西の風 11kt、北西から北/北東の間で変化する
気温 24°C
湿度 65%
気圧 1020 hPa
視程10km以上
高度2500ftの雲は散在している

METAR: OBBI 191000Z 33011KT 310V030 9999 SCT025 24/17 Q1020 NOSIG

時間: 13:28 (10:28 UTC)

予報

当レポートは5時間28分前の05:00(UTC)に作成
予報は19日の 06時(UTC)から 20日の 12時(UTC)まで有効
北/北西の風 10kt
視程10km以上
高度2500ftの雲は散在している
20日の 00時(UTC)から 20日の 06時(UTC)まで一時的に
視程: 5000m
煙霧
確率 30% :
20日の 01時(UTC)から 20日の 05時(UTC)まで一時的に
視程: 2000m
高度800ftの千切れ雲あり

TAF: OBBI 190500Z 1906/2012 34010KT 9999 SCT025 TEMPO 2000/2006 5000 HZ PROB30 TEMPO 2001/2005 2000 BR BKN008

4,000以上の空港の気象観測と天気予報(METAR報とTAF報)

利用可能な観測所は地図上に黄色い丸と赤い丸で示す。

丸の上にカーソルを重ねると観測所名を参照できる。

次にクリックすると気象観測と天気予報を参照できる。

マップの切り替え:黒色「×」印の緑ボタンをクリックして拡大、「-」印の緑ボタンをクリックして縮小、緑色の三角印をクリックして隣りの地図に切り替え


METAR-TAF: